sensor_id;sensor_type;location;lat;lon;timestamp;P1;durP1;ratioP1;P2;durP2;ratioP2
39020;SDS011;25188;51.958;5.842;2023-07-09T00:02:19;11.43;;;7.13;;
39020;SDS011;25188;51.958;5.842;2023-07-09T00:04:45;11.38;;;7.40;;
39020;SDS011;25188;51.958;5.842;2023-07-09T00:07:17;16.05;;;7.70;;
39020;SDS011;25188;51.958;5.842;2023-07-09T00:09:46;11.73;;;7.03;;
39020;SDS011;25188;51.958;5.842;2023-07-09T00:12:15;11.77;;;7.22;;
39020;SDS011;25188;51.958;5.842;2023-07-09T00:14:42;10.85;;;6.40;;
39020;SDS011;25188;51.958;5.842;2023-07-09T00:17:24;12.55;;;7.80;;
39020;SDS011;25188;51.958;5.842;2023-07-09T00:19:52;9.93;;;6.50;;
39020;SDS011;25188;51.958;5.842;2023-07-09T00:22:18;12.80;;;8.35;;
39020;SDS011;25188;51.958;5.842;2023-07-09T00:24:45;15.75;;;7.97;;
39020;SDS011;25188;51.958;5.842;2023-07-09T00:27:15;16.05;;;8.20;;
39020;SDS011;25188;51.958;5.842;2023-07-09T00:29:43;14.23;;;8.02;;
39020;SDS011;25188;51.958;5.842;2023-07-09T00:32:13;12.90;;;7.50;;
39020;SDS011;25188;51.958;5.842;2023-07-09T00:34:41;13.23;;;8.00;;
39020;SDS011;25188;51.958;5.842;2023-07-09T00:37:13;12.02;;;7.43;;
39020;SDS011;25188;51.958;5.842;2023-07-09T00:39:41;12.95;;;7.72;;
39020;SDS011;25188;51.958;5.842;2023-07-09T00:42:13;13.60;;;7.60;;
39020;SDS011;25188;51.958;5.842;2023-07-09T00:44:42;10.68;;;7.07;;
39020;SDS011;25188;51.958;5.842;2023-07-09T00:47:15;14.27;;;8.05;;
39020;SDS011;25188;51.958;5.842;2023-07-09T00:49:49;10.63;;;7.20;;
39020;SDS011;25188;51.958;5.842;2023-07-09T00:52:26;12.38;;;7.07;;
39020;SDS011;25188;51.958;5.842;2023-07-09T00:54:58;10.60;;;7.18;;
39020;SDS011;25188;51.958;5.842;2023-07-09T00:57:29;10.82;;;7.45;;
39020;SDS011;25188;51.958;5.842;2023-07-09T01:00:00;12.50;;;8.05;;
39020;SDS011;25188;51.958;5.842;2023-07-09T01:02:34;10.85;;;6.68;;
39020;SDS011;25188;51.958;5.842;2023-07-09T01:05:01;11.38;;;7.57;;
39020;SDS011;25188;51.958;5.842;2023-07-09T01:07:28;13.48;;;7.03;;
39020;SDS011;25188;51.958;5.842;2023-07-09T01:09:54;12.80;;;7.50;;
39020;SDS011;25188;51.958;5.842;2023-07-09T01:12:20;12.65;;;7.57;;
39020;SDS011;25188;51.958;5.842;2023-07-09T01:14:50;13.50;;;7.75;;
39020;SDS011;25188;51.958;5.842;2023-07-09T01:17:18;13.63;;;8.18;;
39020;SDS011;25188;51.958;5.842;2023-07-09T01:19:48;11.45;;;7.53;;
39020;SDS011;25188;51.958;5.842;2023-07-09T01:22:16;14.30;;;7.88;;
39020;SDS011;25188;51.958;5.842;2023-07-09T01:24:51;11.32;;;7.78;;
39020;SDS011;25188;51.958;5.842;2023-07-09T01:27:31;10.63;;;7.25;;
39020;SDS011;25188;51.958;5.842;2023-07-09T01:30:00;10.97;;;7.50;;
39020;SDS011;25188;51.958;5.842;2023-07-09T01:32:28;13.32;;;7.07;;
39020;SDS011;25188;51.958;5.842;2023-07-09T01:34:57;12.88;;;8.05;;
39020;SDS011;25188;51.958;5.842;2023-07-09T01:37:26;12.63;;;7.78;;
39020;SDS011;25188;51.958;5.842;2023-07-09T01:39:52;9.55;;;6.85;;
39020;SDS011;25188;51.958;5.842;2023-07-09T01:42:20;10.10;;;7.28;;
39020;SDS011;25188;51.958;5.842;2023-07-09T01:44:48;13.02;;;7.60;;
39020;SDS011;25188;51.958;5.842;2023-07-09T01:47:15;13.43;;;8.43;;
39020;SDS011;25188;51.958;5.842;2023-07-09T01:49:42;14.30;;;8.07;;
39020;SDS011;25188;51.958;5.842;2023-07-09T01:52:11;13.68;;;8.43;;
39020;SDS011;25188;51.958;5.842;2023-07-09T01:54:38;12.07;;;7.70;;
39020;SDS011;25188;51.958;5.842;2023-07-09T01:59:48;12.07;;;7.60;;
39020;SDS011;25188;51.958;5.842;2023-07-09T02:02:20;12.35;;;8.30;;
39020;SDS011;25188;51.958;5.842;2023-07-09T02:04:47;13.70;;;8.45;;
39020;SDS011;25188;51.958;5.842;2023-07-09T02:07:15;13.20;;;8.30;;
39020;SDS011;25188;51.958;5.842;2023-07-09T02:09:41;13.13;;;7.85;;
39020;SDS011;25188;51.958;5.842;2023-07-09T02:12:07;10.52;;;7.72;;
39020;SDS011;25188;51.958;5.842;2023-07-09T02:14:34;13.57;;;8.27;;
39020;SDS011;25188;51.958;5.842;2023-07-09T02:16:59;12.00;;;7.82;;
39020;SDS011;25188;51.958;5.842;2023-07-09T02:19:25;13.15;;;8.63;;
39020;SDS011;25188;51.958;5.842;2023-07-09T02:21:50;12.63;;;7.85;;
39020;SDS011;25188;51.958;5.842;2023-07-09T02:24:16;13.13;;;7.70;;
39020;SDS011;25188;51.958;5.842;2023-07-09T02:26:42;12.10;;;8.07;;
39020;SDS011;25188;51.958;5.842;2023-07-09T02:29:07;12.60;;;7.60;;
39020;SDS011;25188;51.958;5.842;2023-07-09T02:31:33;11.40;;;7.43;;
39020;SDS011;25188;51.958;5.842;2023-07-09T02:33:59;13.50;;;8.32;;
39020;SDS011;25188;51.958;5.842;2023-07-09T02:36:25;11.57;;;7.75;;
39020;SDS011;25188;51.958;5.842;2023-07-09T02:38:51;13.50;;;7.95;;
39020;SDS011;25188;51.958;5.842;2023-07-09T02:41:16;12.85;;;8.20;;
39020;SDS011;25188;51.958;5.842;2023-07-09T02:43:42;11.55;;;7.40;;
39020;SDS011;25188;51.958;5.842;2023-07-09T02:46:08;11.68;;;6.93;;
39020;SDS011;25188;51.958;5.842;2023-07-09T02:48:33;12.48;;;7.28;;
39020;SDS011;25188;51.958;5.842;2023-07-09T02:50:59;11.02;;;7.22;;
39020;SDS011;25188;51.958;5.842;2023-07-09T02:53:25;11.68;;;7.68;;
39020;SDS011;25188;51.958;5.842;2023-07-09T02:55:52;12.80;;;7.40;;
39020;SDS011;25188;51.958;5.842;2023-07-09T02:58:18;10.32;;;7.32;;
39020;SDS011;25188;51.958;5.842;2023-07-09T03:00:43;13.05;;;7.82;;
39020;SDS011;25188;51.958;5.842;2023-07-09T03:03:16;14.00;;;7.80;;
39020;SDS011;25188;51.958;5.842;2023-07-09T03:05:44;13.38;;;7.85;;
39020;SDS011;25188;51.958;5.842;2023-07-09T03:08:10;13.20;;;8.18;;
39020;SDS011;25188;51.958;5.842;2023-07-09T03:10:36;13.38;;;8.43;;
39020;SDS011;25188;51.958;5.842;2023-07-09T03:13:01;12.77;;;7.82;;
39020;SDS011;25188;51.958;5.842;2023-07-09T03:15:27;11.38;;;7.72;;
39020;SDS011;25188;51.958;5.842;2023-07-09T03:17:52;10.50;;;7.07;;
39020;SDS011;25188;51.958;5.842;2023-07-09T03:20:18;15.13;;;8.27;;
39020;SDS011;25188;51.958;5.842;2023-07-09T03:22:44;12.75;;;7.20;;
39020;SDS011;25188;51.958;5.842;2023-07-09T03:25:09;12.77;;;7.63;;
39020;SDS011;25188;51.958;5.842;2023-07-09T03:27:35;11.68;;;7.88;;
39020;SDS011;25188;51.958;5.842;2023-07-09T03:30:00;11.93;;;6.97;;
39020;SDS011;25188;51.958;5.842;2023-07-09T03:32:26;12.57;;;7.00;;
39020;SDS011;25188;51.958;5.842;2023-07-09T03:34:52;12.20;;;7.72;;
39020;SDS011;25188;51.958;5.842;2023-07-09T03:37:18;11.18;;;7.22;;
39020;SDS011;25188;51.958;5.842;2023-07-09T03:39:47;12.80;;;7.72;;
39020;SDS011;25188;51.958;5.842;2023-07-09T03:42:12;12.23;;;8.13;;
39020;SDS011;25188;51.958;5.842;2023-07-09T03:44:38;13.20;;;7.90;;
39020;SDS011;25188;51.958;5.842;2023-07-09T03:47:05;13.93;;;7.78;;
39020;SDS011;25188;51.958;5.842;2023-07-09T03:49:31;14.80;;;8.43;;
39020;SDS011;25188;51.958;5.842;2023-07-09T03:51:57;12.60;;;7.28;;
39020;SDS011;25188;51.958;5.842;2023-07-09T03:54:23;11.95;;;8.30;;
39020;SDS011;25188;51.958;5.842;2023-07-09T03:56:49;17.20;;;7.45;;
39020;SDS011;25188;51.958;5.842;2023-07-09T03:59:14;11.55;;;7.20;;
39020;SDS011;25188;51.958;5.842;2023-07-09T04:01:40;13.13;;;7.65;;
39020;SDS011;25188;51.958;5.842;2023-07-09T04:04:11;12.85;;;6.93;;
39020;SDS011;25188;51.958;5.842;2023-07-09T04:06:37;12.68;;;7.43;;
39020;SDS011;25188;51.958;5.842;2023-07-09T04:09:03;16.33;;;7.90;;
39020;SDS011;25188;51.958;5.842;2023-07-09T04:11:29;12.60;;;7.18;;
39020;SDS011;25188;51.958;5.842;2023-07-09T04:13:54;13.05;;;8.32;;
39020;SDS011;25188;51.958;5.842;2023-07-09T04:16:20;16.70;;;7.85;;
39020;SDS011;25188;51.958;5.842;2023-07-09T04:18:46;11.68;;;7.38;;
39020;SDS011;25188;51.958;5.842;2023-07-09T04:21:11;13.20;;;7.50;;
39020;SDS011;25188;51.958;5.842;2023-07-09T04:23:37;11.93;;;7.68;;
39020;SDS011;25188;51.958;5.842;2023-07-09T04:26:03;11.68;;;8.05;;
39020;SDS011;25188;51.958;5.842;2023-07-09T04:28:29;12.38;;;7.45;;
39020;SDS011;25188;51.958;5.842;2023-07-09T04:30:56;10.07;;;6.97;;
39020;SDS011;25188;51.958;5.842;2023-07-09T04:33:21;12.63;;;7.95;;
39020;SDS011;25188;51.958;5.842;2023-07-09T04:35:47;11.77;;;7.60;;
39020;SDS011;25188;51.958;5.842;2023-07-09T04:38:14;14.77;;;8.27;;
39020;SDS011;25188;51.958;5.842;2023-07-09T04:40:40;13.75;;;7.57;;
39020;SDS011;25188;51.958;5.842;2023-07-09T04:43:06;11.77;;;8.10;;
39020;SDS011;25188;51.958;5.842;2023-07-09T04:45:32;12.07;;;7.53;;
39020;SDS011;25188;51.958;5.842;2023-07-09T04:47:58;12.38;;;7.82;;
39020;SDS011;25188;51.958;5.842;2023-07-09T04:50:23;12.80;;;7.95;;
39020;SDS011;25188;51.958;5.842;2023-07-09T04:52:49;13.38;;;8.40;;
39020;SDS011;25188;51.958;5.842;2023-07-09T04:55:15;12.05;;;8.65;;
39020;SDS011;25188;51.958;5.842;2023-07-09T04:57:44;14.48;;;9.30;;
39020;SDS011;25188;51.958;5.842;2023-07-09T05:00:10;13.85;;;8.85;;
39020;SDS011;25188;51.958;5.842;2023-07-09T05:02:36;13.77;;;10.10;;
39020;SDS011;25188;51.958;5.842;2023-07-09T05:05:02;13.80;;;8.68;;
39020;SDS011;25188;51.958;5.842;2023-07-09T05:07:28;17.13;;;9.95;;
39020;SDS011;25188;51.958;5.842;2023-07-09T05:09:53;14.98;;;9.77;;
39020;SDS011;25188;51.958;5.842;2023-07-09T05:12:19;15.75;;;10.35;;
39020;SDS011;25188;51.958;5.842;2023-07-09T05:14:46;14.43;;;9.93;;
39020;SDS011;25188;51.958;5.842;2023-07-09T05:17:11;14.02;;;8.27;;
39020;SDS011;25188;51.958;5.842;2023-07-09T05:19:37;12.25;;;8.63;;
39020;SDS011;25188;51.958;5.842;2023-07-09T05:22:03;12.60;;;8.77;;
39020;SDS011;25188;51.958;5.842;2023-07-09T05:24:29;13.05;;;9.88;;
39020;SDS011;25188;51.958;5.842;2023-07-09T05:26:55;13.63;;;9.73;;
39020;SDS011;25188;51.958;5.842;2023-07-09T05:29:21;14.50;;;10.00;;
39020;SDS011;25188;51.958;5.842;2023-07-09T05:31:46;12.95;;;10.05;;
39020;SDS011;25188;51.958;5.842;2023-07-09T05:34:12;16.83;;;10.43;;
39020;SDS011;25188;51.958;5.842;2023-07-09T05:36:38;14.05;;;10.38;;
39020;SDS011;25188;51.958;5.842;2023-07-09T05:39:04;16.70;;;10.38;;
39020;SDS011;25188;51.958;5.842;2023-07-09T05:41:29;14.32;;;9.75;;
39020;SDS011;25188;51.958;5.842;2023-07-09T05:43:55;15.05;;;10.20;;
39020;SDS011;25188;51.958;5.842;2023-07-09T05:46:21;14.77;;;10.07;;
39020;SDS011;25188;51.958;5.842;2023-07-09T05:48:48;16.88;;;10.07;;
39020;SDS011;25188;51.958;5.842;2023-07-09T05:51:13;16.00;;;10.02;;
39020;SDS011;25188;51.958;5.842;2023-07-09T05:53:39;14.25;;;10.02;;
39020;SDS011;25188;51.958;5.842;2023-07-09T05:56:05;18.30;;;10.48;;
39020;SDS011;25188;51.958;5.842;2023-07-09T05:58:31;14.25;;;9.68;;
39020;SDS011;25188;51.958;5.842;2023-07-09T06:00:56;17.08;;;10.43;;
39020;SDS011;25188;51.958;5.842;2023-07-09T06:03:24;14.63;;;9.77;;
39020;SDS011;25188;51.958;5.842;2023-07-09T06:05:51;14.75;;;10.40;;
39020;SDS011;25188;51.958;5.842;2023-07-09T06:08:18;15.88;;;10.80;;
39020;SDS011;25188;51.958;5.842;2023-07-09T06:10:52;15.65;;;9.95;;
39020;SDS011;25188;51.958;5.842;2023-07-09T06:13:22;14.55;;;9.90;;
39020;SDS011;25188;51.958;5.842;2023-07-09T06:15:48;14.32;;;10.73;;
39020;SDS011;25188;51.958;5.842;2023-07-09T06:18:15;17.33;;;10.15;;
39020;SDS011;25188;51.958;5.842;2023-07-09T06:20:41;15.98;;;9.82;;
39020;SDS011;25188;51.958;5.842;2023-07-09T06:23:12;15.23;;;10.25;;
39020;SDS011;25188;51.958;5.842;2023-07-09T06:25:38;14.05;;;9.05;;
39020;SDS011;25188;51.958;5.842;2023-07-09T06:28:03;16.67;;;10.13;;
39020;SDS011;25188;51.958;5.842;2023-07-09T06:30:29;14.13;;;9.30;;
39020;SDS011;25188;51.958;5.842;2023-07-09T06:32:54;16.10;;;9.77;;
39020;SDS011;25188;51.958;5.842;2023-07-09T06:35:20;13.27;;;9.20;;
39020;SDS011;25188;51.958;5.842;2023-07-09T06:37:46;13.50;;;10.15;;
39020;SDS011;25188;51.958;5.842;2023-07-09T06:40:11;14.25;;;9.60;;
39020;SDS011;25188;51.958;5.842;2023-07-09T06:42:37;14.55;;;9.95;;
39020;SDS011;25188;51.958;5.842;2023-07-09T06:45:03;15.07;;;9.73;;
39020;SDS011;25188;51.958;5.842;2023-07-09T06:47:29;14.00;;;9.35;;
39020;SDS011;25188;51.958;5.842;2023-07-09T06:49:55;13.48;;;8.85;;
39020;SDS011;25188;51.958;5.842;2023-07-09T06:52:21;12.98;;;9.50;;
39020;SDS011;25188;51.958;5.842;2023-07-09T06:54:46;13.32;;;8.98;;
39020;SDS011;25188;51.958;5.842;2023-07-09T06:57:14;13.00;;;8.77;;
39020;SDS011;25188;51.958;5.842;2023-07-09T06:59:39;13.77;;;8.68;;
39020;SDS011;25188;51.958;5.842;2023-07-09T07:02:05;15.43;;;8.95;;
39020;SDS011;25188;51.958;5.842;2023-07-09T07:04:31;14.60;;;8.77;;
39020;SDS011;25188;51.958;5.842;2023-07-09T07:06:57;15.65;;;8.57;;
39020;SDS011;25188;51.958;5.842;2023-07-09T07:09:23;14.40;;;9.20;;
39020;SDS011;25188;51.958;5.842;2023-07-09T07:11:49;16.23;;;8.55;;
39020;SDS011;25188;51.958;5.842;2023-07-09T07:14:15;12.82;;;8.23;;
39020;SDS011;25188;51.958;5.842;2023-07-09T07:16:41;13.23;;;8.65;;
39020;SDS011;25188;51.958;5.842;2023-07-09T07:19:06;13.93;;;8.55;;
39020;SDS011;25188;51.958;5.842;2023-07-09T07:21:32;16.20;;;9.02;;
39020;SDS011;25188;51.958;5.842;2023-07-09T07:23:58;14.07;;;8.43;;
39020;SDS011;25188;51.958;5.842;2023-07-09T07:26:23;12.20;;;8.05;;
39020;SDS011;25188;51.958;5.842;2023-07-09T07:28:49;12.70;;;7.82;;
39020;SDS011;25188;51.958;5.842;2023-07-09T07:31:15;13.23;;;8.15;;
39020;SDS011;25188;51.958;5.842;2023-07-09T07:33:41;12.68;;;7.20;;
39020;SDS011;25188;51.958;5.842;2023-07-09T07:36:08;10.82;;;7.20;;
39020;SDS011;25188;51.958;5.842;2023-07-09T07:38:34;12.63;;;7.78;;
39020;SDS011;25188;51.958;5.842;2023-07-09T07:41:00;12.43;;;7.78;;
39020;SDS011;25188;51.958;5.842;2023-07-09T07:43:26;13.27;;;8.55;;
39020;SDS011;25188;51.958;5.842;2023-07-09T07:45:52;14.73;;;7.75;;
39020;SDS011;25188;51.958;5.842;2023-07-09T07:48:17;15.98;;;8.55;;
39020;SDS011;25188;51.958;5.842;2023-07-09T07:50:43;11.23;;;7.35;;
39020;SDS011;25188;51.958;5.842;2023-07-09T07:53:11;13.30;;;7.82;;
39020;SDS011;25188;51.958;5.842;2023-07-09T07:55:36;12.63;;;7.97;;
39020;SDS011;25188;51.958;5.842;2023-07-09T07:58:03;16.02;;;7.07;;
39020;SDS011;25188;51.958;5.842;2023-07-09T08:00:29;10.57;;;7.32;;
39020;SDS011;25188;51.958;5.842;2023-07-09T08:02:55;13.32;;;7.63;;
39020;SDS011;25188;51.958;5.842;2023-07-09T08:05:21;11.30;;;6.97;;
39020;SDS011;25188;51.958;5.842;2023-07-09T08:07:48;9.48;;;6.45;;
39020;SDS011;25188;51.958;5.842;2023-07-09T08:10:14;17.52;;;7.72;;
39020;SDS011;25188;51.958;5.842;2023-07-09T08:12:41;11.82;;;6.60;;
39020;SDS011;25188;51.958;5.842;2023-07-09T08:15:07;10.82;;;6.82;;
39020;SDS011;25188;51.958;5.842;2023-07-09T08:17:33;10.40;;;6.85;;
39020;SDS011;25188;51.958;5.842;2023-07-09T08:19:58;15.38;;;7.25;;
39020;SDS011;25188;51.958;5.842;2023-07-09T08:22:24;10.18;;;6.93;;
39020;SDS011;25188;51.958;5.842;2023-07-09T08:24:50;11.15;;;6.35;;
39020;SDS011;25188;51.958;5.842;2023-07-09T08:27:16;12.02;;;7.28;;
39020;SDS011;25188;51.958;5.842;2023-07-09T08:29:42;11.90;;;6.70;;
39020;SDS011;25188;51.958;5.842;2023-07-09T08:32:08;10.20;;;6.18;;
39020;SDS011;25188;51.958;5.842;2023-07-09T08:34:34;10.82;;;6.80;;
39020;SDS011;25188;51.958;5.842;2023-07-09T08:37:01;10.68;;;6.40;;
39020;SDS011;25188;51.958;5.842;2023-07-09T08:39:27;10.43;;;5.97;;
39020;SDS011;25188;51.958;5.842;2023-07-09T08:49:30;11.07;;;6.22;;
39020;SDS011;25188;51.958;5.842;2023-07-09T08:52:02;13.45;;;6.22;;
39020;SDS011;25188;51.958;5.842;2023-07-09T08:54:34;10.75;;;6.45;;
39020;SDS011;25188;51.958;5.842;2023-07-09T08:57:15;11.00;;;6.95;;
39020;SDS011;25188;51.958;5.842;2023-07-09T08:59:48;10.02;;;6.30;;
39020;SDS011;25188;51.958;5.842;2023-07-09T09:02:25;8.77;;;5.80;;
39020;SDS011;25188;51.958;5.842;2023-07-09T09:05:00;13.50;;;6.30;;
39020;SDS011;25188;51.958;5.842;2023-07-09T09:07:39;10.35;;;6.28;;
39020;SDS011;25188;51.958;5.842;2023-07-09T09:10:13;11.55;;;6.85;;
39020;SDS011;25188;51.958;5.842;2023-07-09T09:12:53;10.85;;;6.10;;
39020;SDS011;25188;51.958;5.842;2023-07-09T09:15:27;11.60;;;6.07;;
39020;SDS011;25188;51.958;5.842;2023-07-09T09:17:54;10.18;;;6.00;;
39020;SDS011;25188;51.958;5.842;2023-07-09T09:20:24;8.55;;;5.60;;
39020;SDS011;25188;51.958;5.842;2023-07-09T09:25:31;10.57;;;6.10;;
39020;SDS011;25188;51.958;5.842;2023-07-09T09:28:00;10.43;;;5.85;;
39020;SDS011;25188;51.958;5.842;2023-07-09T09:30:27;11.25;;;5.70;;
39020;SDS011;25188;51.958;5.842;2023-07-09T09:32:58;9.70;;;5.25;;
39020;SDS011;25188;51.958;5.842;2023-07-09T09:35:36;10.43;;;5.40;;
39020;SDS011;25188;51.958;5.842;2023-07-09T09:38:09;11.02;;;5.68;;
39020;SDS011;25188;51.958;5.842;2023-07-09T09:40:46;11.90;;;5.50;;
39020;SDS011;25188;51.958;5.842;2023-07-09T09:43:16;8.32;;;5.28;;
39020;SDS011;25188;51.958;5.842;2023-07-09T09:45:44;9.50;;;5.32;;
39020;SDS011;25188;51.958;5.842;2023-07-09T09:48:17;9.15;;;5.43;;
39020;SDS011;25188;51.958;5.842;2023-07-09T09:50:46;8.75;;;5.45;;
39020;SDS011;25188;51.958;5.842;2023-07-09T09:53:34;8.27;;;5.75;;
39020;SDS011;25188;51.958;5.842;2023-07-09T09:56:13;7.90;;;5.05;;
39020;SDS011;25188;51.958;5.842;2023-07-09T09:58:43;9.85;;;4.90;;
39020;SDS011;25188;51.958;5.842;2023-07-09T10:01:16;11.50;;;6.00;;
39020;SDS011;25188;51.958;5.842;2023-07-09T10:03:43;7.93;;;4.82;;
39020;SDS011;25188;51.958;5.842;2023-07-09T10:08:59;9.82;;;4.93;;
39020;SDS011;25188;51.958;5.842;2023-07-09T10:11:45;7.28;;;4.88;;
39020;SDS011;25188;51.958;5.842;2023-07-09T10:14:38;10.27;;;4.97;;
39020;SDS011;25188;51.958;5.842;2023-07-09T10:31:06;9.57;;;4.40;;
39020;SDS011;25188;51.958;5.842;2023-07-09T10:34:01;7.72;;;4.32;;
39020;SDS011;25188;51.958;5.842;2023-07-09T10:39:07;7.65;;;4.10;;
39020;SDS011;25188;51.958;5.842;2023-07-09T10:41:49;6.82;;;4.47;;
39020;SDS011;25188;51.958;5.842;2023-07-09T10:44:22;8.15;;;4.32;;
39020;SDS011;25188;51.958;5.842;2023-07-09T10:49:22;6.88;;;3.65;;
39020;SDS011;25188;51.958;5.842;2023-07-09T10:51:55;7.05;;;4.22;;
39020;SDS011;25188;51.958;5.842;2023-07-09T10:54:33;6.85;;;3.75;;
39020;SDS011;25188;51.958;5.842;2023-07-09T10:57:04;7.55;;;3.40;;
39020;SDS011;25188;51.958;5.842;2023-07-09T10:59:37;7.03;;;3.63;;
39020;SDS011;25188;51.958;5.842;2023-07-09T11:02:13;8.00;;;3.38;;
39020;SDS011;25188;51.958;5.842;2023-07-09T11:04:53;7.60;;;4.22;;
39020;SDS011;25188;51.958;5.842;2023-07-09T11:07:29;7.20;;;3.60;;
39020;SDS011;25188;51.958;5.842;2023-07-09T11:10:05;6.38;;;3.53;;
39020;SDS011;25188;51.958;5.842;2023-07-09T11:12:54;6.13;;;3.75;;
39020;SDS011;25188;51.958;5.842;2023-07-09T11:15:31;8.00;;;4.05;;
39020;SDS011;25188;51.958;5.842;2023-07-09T11:18:01;8.77;;;4.40;;
39020;SDS011;25188;51.958;5.842;2023-07-09T11:20:34;10.65;;;4.32;;
39020;SDS011;25188;51.958;5.842;2023-07-09T11:23:03;6.85;;;4.10;;
39020;SDS011;25188;51.958;5.842;2023-07-09T11:25:43;5.65;;;3.45;;
39020;SDS011;25188;51.958;5.842;2023-07-09T11:28:11;7.97;;;3.88;;
39020;SDS011;25188;51.958;5.842;2023-07-09T11:30:48;8.10;;;3.38;;
39020;SDS011;25188;51.958;5.842;2023-07-09T11:33:17;5.72;;;3.28;;
39020;SDS011;25188;51.958;5.842;2023-07-09T11:35:49;7.75;;;3.50;;
39020;SDS011;25188;51.958;5.842;2023-07-09T11:38:18;5.97;;;3.40;;
39020;SDS011;25188;51.958;5.842;2023-07-09T11:40:47;7.40;;;3.75;;
39020;SDS011;25188;51.958;5.842;2023-07-09T11:43:27;6.28;;;3.63;;
39020;SDS011;25188;51.958;5.842;2023-07-09T11:45:58;6.35;;;3.70;;
39020;SDS011;25188;51.958;5.842;2023-07-09T11:48:38;7.38;;;3.33;;
39020;SDS011;25188;51.958;5.842;2023-07-09T11:51:18;6.47;;;3.53;;
39020;SDS011;25188;51.958;5.842;2023-07-09T11:53:52;5.50;;;3.58;;
39020;SDS011;25188;51.958;5.842;2023-07-09T11:56:23;6.60;;;3.63;;
39020;SDS011;25188;51.958;5.842;2023-07-09T12:01:27;8.27;;;3.47;;
39020;SDS011;25188;51.958;5.842;2023-07-09T12:03:59;7.55;;;3.33;;
39020;SDS011;25188;51.958;5.842;2023-07-09T12:06:28;5.53;;;2.97;;
39020;SDS011;25188;51.958;5.842;2023-07-09T12:08:57;7.75;;;3.45;;
39020;SDS011;25188;51.958;5.842;2023-07-09T12:11:26;6.97;;;3.83;;
39020;SDS011;25188;51.958;5.842;2023-07-09T12:14:03;8.65;;;3.28;;
39020;SDS011;25188;51.958;5.842;2023-07-09T12:16:35;5.43;;;3.15;;
39020;SDS011;25188;51.958;5.842;2023-07-09T12:19:03;6.27;;;3.30;;
39020;SDS011;25188;51.958;5.842;2023-07-09T12:21:29;7.60;;;3.22;;
39020;SDS011;25188;51.958;5.842;2023-07-09T12:23:57;7.20;;;3.47;;
39020;SDS011;25188;51.958;5.842;2023-07-09T12:26:23;10.93;;;3.92;;
39020;SDS011;25188;51.958;5.842;2023-07-09T12:28:49;7.00;;;4.03;;
39020;SDS011;25188;51.958;5.842;2023-07-09T12:31:21;5.28;;;3.33;;
39020;SDS011;25188;51.958;5.842;2023-07-09T12:33:55;6.47;;;3.40;;
39020;SDS011;25188;51.958;5.842;2023-07-09T12:36:23;7.97;;;3.40;;
39020;SDS011;25188;51.958;5.842;2023-07-09T12:38:51;5.00;;;3.33;;
39020;SDS011;25188;51.958;5.842;2023-07-09T12:41:23;5.75;;;3.03;;
39020;SDS011;25188;51.958;5.842;2023-07-09T12:44:05;4.80;;;3.00;;
39020;SDS011;25188;51.958;5.842;2023-07-09T12:46:40;4.93;;;2.90;;
39020;SDS011;25188;51.958;5.842;2023-07-09T12:49:06;7.55;;;3.45;;
39020;SDS011;25188;51.958;5.842;2023-07-09T12:51:31;5.35;;;2.55;;
39020;SDS011;25188;51.958;5.842;2023-07-09T12:54:30;4.50;;;2.85;;
39020;SDS011;25188;51.958;5.842;2023-07-09T12:56:53;5.13;;;2.90;;
39020;SDS011;25188;51.958;5.842;2023-07-09T12:59:20;5.63;;;3.17;;
39020;SDS011;25188;51.958;5.842;2023-07-09T13:01:49;5.60;;;2.50;;
39020;SDS011;25188;51.958;5.842;2023-07-09T13:04:16;6.07;;;3.05;;
39020;SDS011;25188;51.958;5.842;2023-07-09T13:06:42;6.13;;;2.83;;
39020;SDS011;25188;51.958;5.842;2023-07-09T13:09:15;6.63;;;3.55;;
39020;SDS011;25188;51.958;5.842;2023-07-09T13:11:46;8.55;;;3.10;;
39020;SDS011;25188;51.958;5.842;2023-07-09T13:14:22;6.47;;;2.97;;
39020;SDS011;25188;51.958;5.842;2023-07-09T13:16:52;9.57;;;3.63;;
39020;SDS011;25188;51.958;5.842;2023-07-09T13:19:18;8.52;;;4.50;;
39020;SDS011;25188;51.958;5.842;2023-07-09T13:21:44;11.02;;;3.90;;
39020;SDS011;25188;51.958;5.842;2023-07-09T13:24:20;8.80;;;4.22;;
39020;SDS011;25188;51.958;5.842;2023-07-09T13:26:48;7.10;;;3.90;;
39020;SDS011;25188;51.958;5.842;2023-07-09T13:29:14;7.22;;;3.65;;
39020;SDS011;25188;51.958;5.842;2023-07-09T13:31:42;7.93;;;3.63;;
39020;SDS011;25188;51.958;5.842;2023-07-09T13:36:47;6.63;;;3.78;;
39020;SDS011;25188;51.958;5.842;2023-07-09T13:39:13;7.53;;;4.07;;
39020;SDS011;25188;51.958;5.842;2023-07-09T13:41:40;7.10;;;4.35;;
39020;SDS011;25188;51.958;5.842;2023-07-09T13:44:15;8.13;;;4.00;;
39020;SDS011;25188;51.958;5.842;2023-07-09T13:46:53;6.80;;;4.47;;
39020;SDS011;25188;51.958;5.842;2023-07-09T13:49:20;6.85;;;3.90;;
39020;SDS011;25188;51.958;5.842;2023-07-09T13:51:48;8.50;;;4.03;;
39020;SDS011;25188;51.958;5.842;2023-07-09T13:54:20;5.75;;;4.40;;
39020;SDS011;25188;51.958;5.842;2023-07-09T13:56:48;8.85;;;4.75;;
39020;SDS011;25188;51.958;5.842;2023-07-09T13:59:24;8.35;;;4.78;;
39020;SDS011;25188;51.958;5.842;2023-07-09T14:04:18;11.13;;;6.03;;
39020;SDS011;25188;51.958;5.842;2023-07-09T14:06:44;12.13;;;6.57;;
39020;SDS011;25188;51.958;5.842;2023-07-09T14:09:11;10.02;;;6.22;;
39020;SDS011;25188;51.958;5.842;2023-07-09T14:11:39;9.07;;;6.15;;
39020;SDS011;25188;51.958;5.842;2023-07-09T14:14:16;11.40;;;6.45;;
39020;SDS011;25188;51.958;5.842;2023-07-09T14:16:47;12.40;;;6.15;;
39020;SDS011;25188;51.958;5.842;2023-07-09T14:19:15;9.23;;;5.75;;
39020;SDS011;25188;51.958;5.842;2023-07-09T14:21:45;10.57;;;6.10;;
39020;SDS011;25188;51.958;5.842;2023-07-09T14:24:20;12.57;;;7.25;;
39020;SDS011;25188;51.958;5.842;2023-07-09T14:26:52;9.65;;;5.72;;
39020;SDS011;25188;51.958;5.842;2023-07-09T14:29:21;8.85;;;6.15;;
39020;SDS011;25188;51.958;5.842;2023-07-09T14:31:47;10.98;;;6.10;;
39020;SDS011;25188;51.958;5.842;2023-07-09T14:36:57;8.93;;;5.95;;
39020;SDS011;25188;51.958;5.842;2023-07-09T14:39:26;11.77;;;6.72;;
39020;SDS011;25188;51.958;5.842;2023-07-09T14:41:52;9.05;;;6.05;;
39020;SDS011;25188;51.958;5.842;2023-07-09T14:44:25;8.73;;;5.60;;
39020;SDS011;25188;51.958;5.842;2023-07-09T14:46:54;11.80;;;5.63;;
39020;SDS011;25188;51.958;5.842;2023-07-09T14:49:21;9.88;;;5.82;;
39020;SDS011;25188;51.958;5.842;2023-07-09T14:51:48;9.82;;;5.13;;
39020;SDS011;25188;51.958;5.842;2023-07-09T14:56:53;12.70;;;5.00;;
39020;SDS011;25188;51.958;5.842;2023-07-09T14:59:20;11.68;;;3.35;;
39020;SDS011;25188;51.958;5.842;2023-07-09T15:01:46;9.98;;;2.50;;
39020;SDS011;25188;51.958;5.842;2023-07-09T15:06:48;6.47;;;2.85;;
39020;SDS011;25188;51.958;5.842;2023-07-09T15:09:14;7.35;;;2.92;;
39020;SDS011;25188;51.958;5.842;2023-07-09T15:11:42;10.80;;;2.72;;
39020;SDS011;25188;51.958;5.842;2023-07-09T15:14:18;6.25;;;3.13;;
39020;SDS011;25188;51.958;5.842;2023-07-09T15:16:45;8.05;;;3.38;;
39020;SDS011;25188;51.958;5.842;2023-07-09T15:19:16;7.72;;;3.25;;
39020;SDS011;25188;51.958;5.842;2023-07-09T15:24:22;6.00;;;2.92;;
39020;SDS011;25188;51.958;5.842;2023-07-09T15:26:55;7.70;;;3.47;;
39020;SDS011;25188;51.958;5.842;2023-07-09T15:29:22;7.47;;;3.30;;
39020;SDS011;25188;51.958;5.842;2023-07-09T15:31:48;8.35;;;3.38;;
39020;SDS011;25188;51.958;5.842;2023-07-09T15:34:14;6.88;;;2.90;;
39020;SDS011;25188;51.958;5.842;2023-07-09T15:36:45;8.00;;;3.42;;
39020;SDS011;25188;51.958;5.842;2023-07-09T15:39:13;11.23;;;3.33;;
39020;SDS011;25188;51.958;5.842;2023-07-09T15:41:39;10.00;;;3.92;;